Purcell, Oklahoma
Current Conditions -  °F | °C
As of 6:55 AM on Friday 31 Oct 2014 (Local Time) from KOUN Reporting Station
Clear Clear  
Wind Chill: 38°   Ceiling: Unl
Heat Index: 45°   Visibility: 10mi
Dew Point: 39°   Wind: 15mph
Humidity: 81%   Direction: 350°N
Pressure: 30.35"   Gusts: 20mph
Location:  35.01°N, 97.36°W
Report Text: KOUN 311155Z AUTO 35013G17KT 10SM CLR 07/04 A3035 RMK AO2
Loading
Personal Weather Stations






























Interactive Weather Map
Tropical Storm Tracking
New forecast layout! Learn more

10-Day Weather Forecast

Advertisements
Track Severe Weather on mobile